createdAt,value
2023-04-05T00:01:31.899Z,5.03
2023-04-05T00:04:00.620Z,6.22
2023-04-05T00:06:29.210Z,6.00
2023-04-05T00:08:57.263Z,4.93
2023-04-05T00:11:25.055Z,5.63
2023-04-05T00:13:52.623Z,4.75
2023-04-05T00:16:20.566Z,5.28
2023-04-05T00:18:51.910Z,5.43
2023-04-05T00:21:21.921Z,5.50
2023-04-05T00:23:51.319Z,5.55
2023-04-05T00:26:18.926Z,5.10
2023-04-05T00:28:46.485Z,5.40
2023-04-05T00:31:14.117Z,4.88
2023-04-05T00:33:41.920Z,4.05
2023-04-05T00:36:11.676Z,5.30
2023-04-05T00:38:39.689Z,5.22
2023-04-05T00:41:07.259Z,5.22
2023-04-05T00:43:34.782Z,4.93
2023-04-05T00:46:03.386Z,5.22
2023-04-05T00:48:31.552Z,4.60
2023-04-05T00:50:59.534Z,5.97
2023-04-05T00:53:28.753Z,5.40
2023-04-05T00:55:56.320Z,4.95
2023-04-05T00:58:24.583Z,4.30
2023-04-05T01:00:59.384Z,5.38
2023-04-05T01:03:29.047Z,4.72
2023-04-05T01:05:58.366Z,5.03
2023-04-05T01:08:33.990Z,5.03
2023-04-05T01:11:04.525Z,5.30
2023-04-05T01:13:32.085Z,4.95
2023-04-05T01:15:59.709Z,4.57
2023-04-05T01:18:28.044Z,4.88
2023-04-05T01:20:59.407Z,5.22
2023-04-05T01:23:44.653Z,4.95
2023-04-05T01:26:31.987Z,5.10
2023-04-05T01:29:11.913Z,4.68
2023-04-05T01:31:43.872Z,4.95
2023-04-05T01:34:14.768Z,5.30
2023-04-05T01:36:43.487Z,5.65
2023-04-05T01:39:12.756Z,4.57
2023-04-05T01:41:40.425Z,5.07
2023-04-05T01:44:07.980Z,5.28
2023-04-05T01:46:35.784Z,5.15
2023-04-05T01:49:04.730Z,4.68
2023-04-05T01:51:33.292Z,5.35
2023-04-05T01:54:00.951Z,4.38
2023-04-05T01:56:28.554Z,4.40
2023-04-05T01:58:56.107Z,4.47
2023-04-05T02:01:23.683Z,5.57
2023-04-05T02:03:51.470Z,4.32
2023-04-05T02:06:20.453Z,4.30
2023-04-05T02:08:47.937Z,4.38
2023-04-05T02:14:07.291Z,4.40
2023-04-05T02:16:36.152Z,4.03
2023-04-05T02:19:04.016Z,3.92
2023-04-05T02:21:32.966Z,4.72
2023-04-05T02:24:00.410Z,3.97
2023-04-05T02:26:27.880Z,4.57
2023-04-05T02:28:55.586Z,3.85
2023-04-05T02:31:23.260Z,4.15
2023-04-05T02:33:50.759Z,3.88
2023-04-05T02:36:18.575Z,3.55
2023-04-05T02:38:47.533Z,3.67
2023-04-05T02:41:15.072Z,4.60
2023-04-05T02:43:43.117Z,3.83
2023-04-05T02:46:10.744Z,3.22
2023-04-05T02:48:39.223Z,2.88
2023-04-05T02:51:06.739Z,3.10
2023-04-05T02:53:34.248Z,3.15
2023-04-05T02:56:03.102Z,3.22
2023-04-05T02:58:30.733Z,3.05
2023-04-05T03:00:58.327Z,3.47
2023-04-05T03:03:26.291Z,5.10
2023-04-05T03:05:59.290Z,3.47
2023-04-05T03:08:28.726Z,3.22
2023-04-05T03:10:56.428Z,3.15
2023-04-05T03:13:25.345Z,3.15
2023-04-05T03:15:54.551Z,3.22
2023-04-05T03:18:22.168Z,3.10
2023-04-05T03:20:50.350Z,3.10
2023-04-05T03:23:18.656Z,2.83
2023-04-05T03:25:46.300Z,3.17
2023-04-05T03:28:13.840Z,2.42
2023-04-05T03:30:42.692Z,2.55
2023-04-05T03:33:10.139Z,2.75
2023-04-05T03:35:38.052Z,2.30
2023-04-05T03:38:05.870Z,3.00
2023-04-05T03:40:33.459Z,2.95
2023-04-05T03:43:01.118Z,2.45
2023-04-05T03:45:29.540Z,2.30
2023-04-05T03:47:58.930Z,2.85
2023-04-05T03:50:26.696Z,2.60
2023-04-05T03:52:54.228Z,2.25
2023-04-05T03:55:21.813Z,2.17
2023-04-05T03:57:49.324Z,2.35
2023-04-05T04:00:17.997Z,2.67
2023-04-05T04:02:46.023Z,2.30
2023-04-05T04:05:15.799Z,2.28
2023-04-05T04:07:43.485Z,2.35
2023-04-05T04:10:12.198Z,2.40
2023-04-05T04:12:39.908Z,2.50
2023-04-05T04:15:08.300Z,2.00
2023-04-05T04:17:36.584Z,2.05
2023-04-05T04:20:08.143Z,2.33
2023-04-05T04:22:38.747Z,1.92
2023-04-05T04:25:10.421Z,2.30
2023-04-05T04:27:39.098Z,2.40
2023-04-05T04:30:10.834Z,2.28
2023-04-05T04:32:54.833Z,2.22
2023-04-05T04:35:24.893Z,2.08
2023-04-05T04:37:57.987Z,2.28
2023-04-05T04:40:26.743Z,1.80
2023-04-05T04:42:54.780Z,2.28
2023-04-05T04:45:22.430Z,2.30
2023-04-05T04:47:52.871Z,2.00
2023-04-05T04:50:22.164Z,2.17
2023-04-05T04:52:49.840Z,2.70
2023-04-05T04:55:18.680Z,2.20
2023-04-05T04:57:46.211Z,2.33
2023-04-05T05:00:21.690Z,1.70
2023-04-05T05:02:49.505Z,2.25
2023-04-05T05:05:17.337Z,2.13
2023-04-05T05:07:45.145Z,2.17
2023-04-05T05:10:16.159Z,1.88
2023-04-05T05:12:45.380Z,1.98
2023-04-05T05:15:13.240Z,2.10
2023-04-05T05:17:40.726Z,2.20
2023-04-05T05:20:11.014Z,2.42
2023-04-05T05:22:38.945Z,1.90
2023-04-05T05:25:07.036Z,2.42
2023-04-05T05:27:34.937Z,2.10
2023-04-05T05:30:04.290Z,1.95
2023-04-05T05:32:31.979Z,2.30
2023-04-05T05:34:59.599Z,1.80
2023-04-05T05:37:30.841Z,1.98
2023-04-05T05:39:58.503Z,1.83
2023-04-05T05:42:27.318Z,1.70
2023-04-05T05:44:55.105Z,1.60
2023-04-05T05:47:24.268Z,1.58
2023-04-05T05:49:57.961Z,1.73
2023-04-05T05:52:25.723Z,1.83
2023-04-05T05:54:53.368Z,1.58
2023-04-05T05:57:45.009Z,1.92
2023-04-05T06:00:17.872Z,1.65
2023-04-05T06:02:49.280Z,1.80
2023-04-05T06:05:17.305Z,1.63
2023-04-05T06:07:44.800Z,1.50
2023-04-05T06:10:12.576Z,1.30
2023-04-05T06:12:40.071Z,1.58
2023-04-05T06:15:08.174Z,1.65
2023-04-05T06:20:36.603Z,1.67
2023-04-05T06:23:04.167Z,1.52
2023-04-05T06:25:31.677Z,1.35
2023-04-05T06:33:43.322Z,1.38
2023-04-05T06:36:12.304Z,1.88
2023-04-05T06:38:39.949Z,1.75
2023-04-05T06:43:59.311Z,1.80
2023-04-05T06:46:27.371Z,1.67
2023-04-05T06:48:54.886Z,2.20
2023-04-05T06:51:25.571Z,1.95
2023-04-05T06:53:53.103Z,1.70
2023-04-05T06:56:20.626Z,1.90
2023-04-05T06:58:48.221Z,2.35
2023-04-05T07:01:17.463Z,3.05
2023-04-05T07:03:45.004Z,3.08
2023-04-05T07:06:13.125Z,2.05
2023-04-05T07:08:41.941Z,2.50
2023-04-05T07:11:09.416Z,2.55
2023-04-05T07:13:40.129Z,2.10
2023-04-05T07:16:07.956Z,2.13
2023-04-05T07:18:35.481Z,5.13
2023-04-05T07:21:04.408Z,2.85
2023-04-05T07:23:31.982Z,2.33
2023-04-05T07:26:04.482Z,2.25
2023-04-05T07:28:32.734Z,2.47
2023-04-05T07:31:00.448Z,2.47
2023-04-05T07:33:28.240Z,1.80
2023-04-05T07:35:56.927Z,2.30
2023-04-05T07:38:25.004Z,2.10
2023-04-05T07:40:52.826Z,2.00
2023-04-05T07:43:46.265Z,1.92
2023-04-05T07:46:13.841Z,1.95
2023-04-05T07:48:41.542Z,1.83
2023-04-05T07:51:11.238Z,1.92
2023-04-05T07:53:39.040Z,2.00
2023-04-05T07:56:06.977Z,1.98
2023-04-05T07:58:36.012Z,2.65
2023-04-05T08:01:04.136Z,2.15
2023-04-05T08:03:32.267Z,2.33
2023-04-05T08:05:59.999Z,2.05
2023-04-05T08:08:27.897Z,2.17
2023-04-05T08:10:55.648Z,2.10
2023-04-05T08:16:17.005Z,1.80
2023-04-05T08:18:49.287Z,1.88
2023-04-05T08:21:19.854Z,1.95
2023-04-05T08:23:47.363Z,1.83
2023-04-05T08:26:14.994Z,1.90
2023-04-05T08:28:42.592Z,1.80
2023-04-05T08:31:12.428Z,2.10
2023-04-05T08:33:42.970Z,2.05
2023-04-05T08:36:12.182Z,2.70
2023-04-05T08:38:40.215Z,2.13
2023-04-05T08:41:08.870Z,1.98
2023-04-05T08:43:47.636Z,2.13
2023-04-05T08:46:18.896Z,2.63
2023-04-05T08:51:40.436Z,2.20
2023-04-05T08:54:08.308Z,2.50
2023-04-05T08:56:36.733Z,2.97
2023-04-05T08:59:05.255Z,2.35
2023-04-05T09:01:34.559Z,2.65
2023-04-05T09:04:07.141Z,2.53
2023-04-05T09:06:36.794Z,2.10
2023-04-05T09:09:07.579Z,2.28
2023-04-05T09:11:35.440Z,2.40
2023-04-05T09:14:03.929Z,2.55
2023-04-05T09:16:37.078Z,2.05
2023-04-05T09:19:06.556Z,2.70
2023-04-05T09:21:49.011Z,2.50
2023-04-05T09:24:16.508Z,2.45
2023-04-05T09:26:44.001Z,2.50
2023-04-05T09:32:27.808Z,2.47
2023-04-05T09:35:01.100Z,2.63
2023-04-05T09:37:29.619Z,2.10
2023-04-05T09:40:03.935Z,2.17
2023-04-05T09:42:33.276Z,2.45
2023-04-05T09:45:02.834Z,2.88
2023-04-05T09:47:32.816Z,2.30
2023-04-05T09:53:06.213Z,2.55
2023-04-05T09:55:33.841Z,2.20
2023-04-05T09:58:05.570Z,2.47
2023-04-05T10:00:33.919Z,2.28
2023-04-05T10:03:01.575Z,2.20
2023-04-05T10:05:32.621Z,2.53
2023-04-05T10:08:00.520Z,2.75
2023-04-05T10:10:28.033Z,2.50
2023-04-05T10:12:55.787Z,2.50
2023-04-05T10:15:27.629Z,2.33
2023-04-05T10:18:00.840Z,2.88
2023-04-05T10:20:33.130Z,2.70
2023-04-05T10:23:01.886Z,2.75
2023-04-05T10:25:37.015Z,2.60
2023-04-05T10:28:05.221Z,2.85
2023-04-05T10:30:35.818Z,3.40
2023-04-05T10:33:08.466Z,2.70
2023-04-05T10:35:43.227Z,3.50
2023-04-05T10:41:10.346Z,3.17
2023-04-05T10:43:38.987Z,3.28
2023-04-05T10:46:07.680Z,3.05
2023-04-05T10:51:57.751Z,2.78
2023-04-05T10:54:25.644Z,3.00
2023-04-05T10:56:53.617Z,3.40
2023-04-05T10:59:22.098Z,3.20
2023-04-05T11:01:51.348Z,2.92
2023-04-05T11:04:19.155Z,2.80
2023-04-05T11:06:48.232Z,3.88
2023-04-05T11:09:19.000Z,3.53
2023-04-05T11:11:47.651Z,3.55
2023-04-05T11:14:19.504Z,2.83
2023-04-05T11:16:49.357Z,3.60
2023-04-05T11:19:17.672Z,3.05
2023-04-05T11:21:45.590Z,3.67
2023-04-05T11:24:15.625Z,3.30
2023-04-05T11:26:59.644Z,3.60
2023-04-05T11:29:52.263Z,3.97
2023-04-05T11:35:14.706Z,4.10
2023-04-05T11:37:55.615Z,3.88
2023-04-05T11:40:27.378Z,3.38
2023-04-05T11:43:07.571Z,3.25
2023-04-05T11:45:36.246Z,4.75
2023-04-05T11:48:06.394Z,4.40
2023-04-05T11:50:34.498Z,3.90
2023-04-05T11:56:14.148Z,4.88
2023-04-05T11:58:45.235Z,4.43
2023-04-05T12:01:13.511Z,4.70
2023-04-05T12:07:04.896Z,5.10
2023-04-05T12:09:32.496Z,4.88
2023-04-05T12:12:00.041Z,4.60
2023-04-05T12:14:29.288Z,4.35
2023-04-05T12:16:56.811Z,4.45
2023-04-05T12:19:24.491Z,4.75
2023-04-05T12:21:52.438Z,4.38
2023-04-05T12:24:25.915Z,5.50
2023-04-05T12:26:57.948Z,4.85
2023-04-05T12:29:26.841Z,4.53
2023-04-05T12:31:59.112Z,4.90
2023-04-05T12:34:27.213Z,4.30
2023-04-05T12:36:54.849Z,5.25
2023-04-05T12:39:23.900Z,4.68
2023-04-05T12:41:57.499Z,5.28
2023-04-05T12:44:29.827Z,4.40
2023-04-05T12:47:03.219Z,5.03
2023-04-05T12:55:22.504Z,4.80
2023-04-05T12:57:50.620Z,4.43
2023-04-05T13:00:18.918Z,4.60
2023-04-05T13:05:45.201Z,4.53
2023-04-05T13:08:14.943Z,5.82
2023-04-05T13:10:42.510Z,4.70
2023-04-05T13:13:10.112Z,3.92
2023-04-05T13:15:37.879Z,4.63
2023-04-05T13:18:07.133Z,5.22
2023-04-05T13:20:35.098Z,5.30
2023-04-05T13:23:02.792Z,5.25
2023-04-05T13:25:30.658Z,4.68
2023-04-05T13:27:58.321Z,6.10
2023-04-05T13:30:27.844Z,5.10
2023-04-05T13:32:55.535Z,5.57
2023-04-05T13:35:24.633Z,5.20
2023-04-05T13:37:52.169Z,5.90
2023-04-05T13:40:19.760Z,5.60
2023-04-05T13:42:48.715Z,5.68
2023-04-05T13:45:16.420Z,5.00
2023-04-05T13:47:44.451Z,5.38
2023-04-05T13:50:12.206Z,5.95
2023-04-05T13:52:41.197Z,6.10
2023-04-05T13:55:09.140Z,6.13
2023-04-05T13:57:37.113Z,6.03
2023-04-05T14:00:05.466Z,5.72
2023-04-05T14:02:33.453Z,6.35
2023-04-05T14:05:01.447Z,5.50
2023-04-05T14:07:29.111Z,6.05
2023-04-05T14:09:58.191Z,5.40
2023-04-05T14:15:17.983Z,6.45
2023-04-05T14:17:47.957Z,6.93
2023-04-05T14:20:15.698Z,7.45
2023-04-05T14:22:43.311Z,7.55
2023-04-05T14:25:12.436Z,7.18
2023-04-05T14:27:42.486Z,7.35
2023-04-05T14:30:13.312Z,7.43
2023-04-05T14:32:40.964Z,8.45
2023-04-05T14:35:09.322Z,7.00
2023-04-05T14:37:36.904Z,8.25
2023-04-05T14:40:08.814Z,7.50
2023-04-05T14:42:48.363Z,7.75
2023-04-05T14:45:18.658Z,8.20
2023-04-05T14:50:44.412Z,8.38
2023-04-05T14:53:11.901Z,8.35
2023-04-05T14:55:40.751Z,8.45
2023-04-05T14:58:14.339Z,8.25
2023-04-05T15:00:43.833Z,8.25
2023-04-05T15:03:11.926Z,8.18
2023-04-05T15:05:43.674Z,8.13
2023-04-05T15:08:12.225Z,8.85
2023-04-05T15:10:45.369Z,8.65
2023-04-05T15:13:14.357Z,8.07
2023-04-05T15:15:42.051Z,9.45
2023-04-05T15:18:09.868Z,8.02
2023-04-05T15:20:38.054Z,8.18
2023-04-05T15:23:06.577Z,9.35
2023-04-05T15:25:42.311Z,9.70
2023-04-05T15:28:09.857Z,9.85
2023-04-05T15:30:38.937Z,9.30
2023-04-05T15:33:06.577Z,9.02
2023-04-05T15:35:36.831Z,9.65
2023-04-05T15:38:04.448Z,9.55
2023-04-05T15:40:31.961Z,9.57
2023-04-05T15:43:00.105Z,9.25
2023-04-05T15:45:28.981Z,10.90
2023-04-05T15:47:58.187Z,10.20
2023-04-05T15:50:26.354Z,11.27
2023-04-05T15:52:53.966Z,10.32
2023-04-05T15:55:21.926Z,10.80
2023-04-05T15:57:54.636Z,10.65
2023-04-05T16:00:47.286Z,10.80
2023-04-05T16:09:05.129Z,11.93
2023-04-05T16:11:33.339Z,11.30
2023-04-05T16:14:01.735Z,11.43
2023-04-05T16:16:38.850Z,11.32
2023-04-05T16:19:19.119Z,11.77
2023-04-05T16:21:47.735Z,11.80
2023-04-05T16:24:15.375Z,10.50
2023-04-05T16:26:43.167Z,9.80
2023-04-05T16:29:12.119Z,10.93
2023-04-05T16:31:50.385Z,11.30
2023-04-05T16:34:23.000Z,11.07
2023-04-05T16:36:52.210Z,11.02
2023-04-05T16:39:22.844Z,12.18
2023-04-05T16:44:42.619Z,11.32
2023-04-05T16:47:10.874Z,11.60
2023-04-05T16:49:39.935Z,10.57
2023-04-05T16:52:07.562Z,11.35
2023-04-05T16:54:35.853Z,11.05
2023-04-05T16:57:03.717Z,11.25
2023-04-05T16:59:31.324Z,12.55
2023-04-05T17:01:59.651Z,11.57
2023-04-05T17:04:27.201Z,11.77
2023-04-05T17:06:57.592Z,11.80
2023-04-05T17:09:29.211Z,12.25
2023-04-05T17:11:57.683Z,11.13
2023-04-05T17:14:25.515Z,11.90
2023-04-05T17:16:53.047Z,11.43
2023-04-05T17:19:22.399Z,11.35
2023-04-05T17:21:49.988Z,12.00
2023-04-05T17:24:19.062Z,11.93
2023-04-05T17:26:47.101Z,12.25
2023-04-05T17:29:14.649Z,11.93
2023-04-05T17:31:44.016Z,11.75
2023-04-05T17:34:15.025Z,12.82
2023-04-05T17:36:42.998Z,11.48
2023-04-05T17:39:10.549Z,11.77
2023-04-05T17:41:39.540Z,12.10
2023-04-05T17:44:07.476Z,13.68
2023-04-05T17:46:42.877Z,13.35
2023-04-05T17:49:14.284Z,11.73
2023-04-05T17:51:41.962Z,13.82
2023-04-05T17:54:12.375Z,12.95
2023-04-05T17:56:41.503Z,12.77
2023-04-05T17:59:09.558Z,12.50
2023-04-05T18:01:39.982Z,13.30
2023-04-05T18:04:32.312Z,12.32
2023-04-05T18:07:00.236Z,12.27
2023-04-05T18:09:28.578Z,13.40
2023-04-05T18:11:57.714Z,12.73
2023-04-05T18:14:25.386Z,13.57
2023-04-05T18:16:54.974Z,12.27
2023-04-05T18:22:16.959Z,13.80
2023-04-05T18:24:44.496Z,13.23
2023-04-05T18:27:13.431Z,13.18
2023-04-05T18:32:32.412Z,12.10
2023-04-05T18:35:03.029Z,13.35
2023-04-05T18:37:31.043Z,13.50
2023-04-05T18:39:58.675Z,13.88
2023-04-05T18:42:27.706Z,14.52
2023-04-05T18:44:55.380Z,15.07
2023-04-05T18:47:22.960Z,12.90
2023-04-05T18:49:52.849Z,12.98
2023-04-05T18:52:23.823Z,14.23
2023-04-05T18:54:51.350Z,14.25
2023-04-05T18:57:43.056Z,14.65
2023-04-05T19:00:13.213Z,15.18
2023-04-05T19:02:41.523Z,14.90
2023-04-05T19:05:10.010Z,13.98
2023-04-05T19:07:37.602Z,15.90
2023-04-05T19:10:05.440Z,15.98
2023-04-05T19:12:33.030Z,16.35
2023-04-05T19:15:00.558Z,15.25
2023-04-05T19:17:32.822Z,14.82
2023-04-05T19:20:00.400Z,15.65
2023-04-05T19:22:27.897Z,14.52
2023-04-05T19:24:55.423Z,15.85
2023-04-05T19:27:23.145Z,15.13
2023-04-05T19:29:50.881Z,15.10
2023-04-05T19:32:18.414Z,15.05
2023-04-05T19:34:47.374Z,16.02
2023-04-05T19:37:14.898Z,15.65
2023-04-05T19:39:42.577Z,15.73
2023-04-05T19:42:10.281Z,16.08
2023-04-05T19:44:45.346Z,15.38
2023-04-05T19:47:14.866Z,14.77
2023-04-05T19:49:43.205Z,16.67
2023-04-05T19:52:12.815Z,15.05
2023-04-05T19:54:40.698Z,16.33
2023-04-05T19:57:09.789Z,15.05
2023-04-05T19:59:37.333Z,14.63
2023-04-05T20:05:03.380Z,15.90
2023-04-05T20:07:32.364Z,14.30
2023-04-05T20:10:00.283Z,14.27
2023-04-05T20:12:27.785Z,14.90
2023-04-05T20:14:55.707Z,15.57
2023-04-05T20:17:23.220Z,15.90
2023-04-05T20:19:57.758Z,14.70
2023-04-05T20:22:27.196Z,15.90
2023-04-05T20:24:56.397Z,14.90
2023-04-05T20:27:23.969Z,15.48
2023-04-05T20:29:52.443Z,15.75
2023-04-05T20:32:20.039Z,13.82
2023-04-05T20:34:47.612Z,14.43
2023-04-05T20:37:15.774Z,14.00
2023-04-05T20:39:43.299Z,14.77
2023-04-05T20:42:12.141Z,14.85
2023-04-05T20:44:39.733Z,17.05
2023-04-05T20:47:09.890Z,15.27
2023-04-05T20:49:37.436Z,14.63
2023-04-05T20:52:07.700Z,14.52
2023-04-05T20:54:35.466Z,15.77
2023-04-05T20:57:03.086Z,14.95
2023-04-05T20:59:31.998Z,13.70
2023-04-05T21:01:59.727Z,15.25
2023-04-05T21:04:29.348Z,15.02
2023-04-05T21:06:58.163Z,14.77
2023-04-05T21:09:25.888Z,15.48
2023-04-05T21:11:53.404Z,14.82
2023-04-05T21:14:21.308Z,15.40
2023-04-05T21:16:50.102Z,14.25
2023-04-05T21:19:17.631Z,14.70
2023-04-05T21:21:45.271Z,14.70
2023-04-05T21:24:12.775Z,14.10
2023-04-05T21:26:40.339Z,13.95
2023-04-05T21:29:09.580Z,15.35
2023-04-05T21:31:38.822Z,15.13
2023-04-05T21:34:07.710Z,14.63
2023-04-05T21:36:37.432Z,14.32
2023-04-05T21:39:05.036Z,14.13
2023-04-05T21:41:32.735Z,13.68
2023-04-05T21:44:00.394Z,14.85
2023-04-05T21:46:28.049Z,14.18
2023-04-05T21:48:55.626Z,13.80
2023-04-05T21:51:26.129Z,13.73
2023-04-05T21:53:54.137Z,14.98
2023-04-05T21:56:21.668Z,13.90
2023-04-05T21:58:49.210Z,13.32
2023-04-05T22:01:16.993Z,13.18
2023-04-05T22:03:44.605Z,13.98
2023-04-05T22:06:13.325Z,13.38
2023-04-05T22:08:42.258Z,12.75
2023-04-05T22:11:09.835Z,12.98
2023-04-05T22:13:37.368Z,13.57
2023-04-05T22:16:05.015Z,13.63
2023-04-05T22:18:32.646Z,12.80
2023-04-05T22:21:00.259Z,13.25
2023-04-05T22:23:27.728Z,12.35
2023-04-05T22:25:56.709Z,12.52
2023-04-05T22:28:24.680Z,11.63
2023-04-05T22:30:52.189Z,13.25
2023-04-05T22:33:20.027Z,12.70
2023-04-05T22:35:47.514Z,11.93
2023-04-05T22:38:15.050Z,12.95
2023-04-05T22:40:44.882Z,13.07
2023-04-05T22:43:13.747Z,11.98
2023-04-05T22:45:41.309Z,13.57
2023-04-05T22:48:08.908Z,12.27
2023-04-05T22:50:36.421Z,12.38
2023-04-05T22:53:03.883Z,11.27
2023-04-05T22:55:31.558Z,11.55
2023-04-05T22:57:59.387Z,11.20
2023-04-05T23:00:28.244Z,11.77
2023-04-05T23:02:55.979Z,11.45
2023-04-05T23:05:23.488Z,11.85
2023-04-05T23:07:51.081Z,12.82
2023-04-05T23:10:18.714Z,11.20
2023-04-05T23:12:46.604Z,10.45
2023-04-05T23:15:14.159Z,11.18
2023-04-05T23:17:43.053Z,11.82
2023-04-05T23:20:11.607Z,10.77
2023-04-05T23:22:39.241Z,11.13
2023-04-05T23:25:07.830Z,10.18
2023-04-05T23:27:35.335Z,11.43
2023-04-05T23:30:02.888Z,9.52
2023-04-05T23:32:30.423Z,10.68
2023-04-05T23:34:59.293Z,10.40
2023-04-05T23:37:26.771Z,9.98
2023-04-05T23:39:54.264Z,9.95
2023-04-05T23:42:21.736Z,8.82
2023-04-05T23:44:49.231Z,8.52
2023-04-05T23:47:16.793Z,8.63
2023-04-05T23:49:44.887Z,9.10
2023-04-05T23:52:13.690Z,9.18
2023-04-05T23:54:41.254Z,9.48
2023-04-05T23:57:08.734Z,8.75
2023-04-05T23:59:36.507Z,8.73
